Time;durP1;ratioP1;P1;durP2;ratioP2;P2;SDS_P1;SDS_P2;PMS_P1;PMS_P2;Temp;Humidity;BMP_temperature;BMP_pressure;BME280_temperature;BME280_humidity;BME280_pressure;Samples;Min_cycle;Max_cycle;Signal;HPM_P1;HPM_P2
2023/06/01 00:00:25;;;;;;;10.67;10.10;;;15.70;99.90;;;;;;5042449;28;20456;-68
2023/06/01 00:02:52;;;;;;;11.10;10.50;;;15.60;99.90;;;;;;5033805;28;20950;-67
2023/06/01 00:05:20;;;;;;;9.70;9.30;;;15.60;99.90;;;;;;5038786;28;20476;-68
2023/06/01 00:07:47;;;;;;;9.57;9.27;;;15.50;99.90;;;;;;5047017;28;21024;-67
2023/06/01 00:10:14;;;;;;;10.70;10.30;;;15.50;99.90;;;;;;5036230;28;20973;-67
2023/06/01 00:12:42;;;;;;;12.47;11.53;;;15.40;99.90;;;;;;5043128;28;21083;-67
2023/06/01 00:15:11;;;;;;;10.90;10.50;;;15.50;99.90;;;;;;5041591;28;20473;-68
2023/06/01 00:17:38;;;;;;;11.00;10.30;;;15.40;99.90;;;;;;5044818;28;20556;-68
2023/06/01 00:20:08;;;;;;;9.67;9.30;;;15.30;99.90;;;;;;5045211;28;20491;-67
2023/06/01 00:22:38;;;;;;;9.97;9.57;;;15.30;99.90;;;;;;5036392;28;20461;-67
2023/06/01 00:25:06;;;;;;;10.90;10.20;;;15.30;99.90;;;;;;5043605;28;21027;-67
2023/06/01 00:27:34;;;;;;;9.30;9.00;;;15.20;99.90;;;;;;5048178;28;20467;-67
2023/06/01 00:30:01;;;;;;;9.07;8.77;;;15.10;99.90;;;;;;5031494;28;20476;-67
2023/06/01 00:32:31;;;;;;;10.40;10.00;;;15.10;99.90;;;;;;5030485;28;20463;-67
2023/06/01 00:35:00;;;;;;;9.77;9.30;;;15.00;99.90;;;;;;5029775;28;20958;-67
2023/06/01 00:37:28;;;;;;;9.43;9.03;;;15.00;99.90;;;;;;5042876;28;20472;-67
2023/06/01 00:39:56;;;;;;;8.27;7.97;;;15.00;99.90;;;;;;5040473;28;20560;-68
2023/06/01 00:42:22;;;;;;;9.40;9.00;;;15.00;99.90;;;;;;5044831;28;20524;-67
2023/06/01 00:44:49;;;;;;;8.63;8.33;;;14.90;99.90;;;;;;5044134;28;20950;-68
2023/06/01 00:47:16;;;;;;;8.40;8.10;;;14.90;99.90;;;;;;5044793;28;20469;-67
2023/06/01 00:49:45;;;;;;;10.30;9.80;;;14.80;99.90;;;;;;5043648;28;20460;-67
2023/06/01 00:52:13;;;;;;;8.80;8.50;;;14.70;99.90;;;;;;5043848;28;20511;-67
2023/06/01 00:54:39;;;;;;;9.70;9.20;;;14.70;99.90;;;;;;5047082;28;21028;-67
2023/06/01 00:57:07;;;;;;;7.67;7.47;;;14.70;99.90;;;;;;5044018;28;20468;-67
2023/06/01 00:59:36;;;;;;;10.60;9.93;;;14.60;99.90;;;;;;5038638;28;20471;-67
2023/06/01 01:02:04;;;;;;;7.53;7.33;;;14.50;99.90;;;;;;5036014;28;20464;-67
2023/06/01 01:04:32;;;;;;;7.30;7.00;;;14.50;99.90;;;;;;5041116;28;20475;-68
2023/06/01 01:07:20;;;;;;;8.83;8.33;;;14.40;99.90;;;;;;5040270;28;20489;-67
2023/06/01 01:09:54;;;;;;;9.20;7.40;;;14.40;99.90;;;;;;5036757;28;20940;-68
2023/06/01 01:12:34;;;;;;;7.43;7.10;;;14.30;99.90;;;;;;5040788;28;20464;-67
2023/06/01 01:15:09;;;;;;;7.60;7.30;;;14.30;99.90;;;;;;5043249;28;20455;-68
2023/06/01 01:17:42;;;;;;;23.13;7.37;;;14.20;99.90;;;;;;5034628;28;20555;-67
2023/06/01 01:20:12;;;;;;;8.03;7.63;;;14.20;99.90;;;;;;5046313;28;20542;-67
2023/06/01 01:23:11;;;;;;;7.50;7.10;;;14.10;99.90;;;;;;5046462;28;20464;-67
2023/06/01 01:26:24;;;;;;;7.97;7.53;;;14.10;99.90;;;;;;5033422;28;20480;-68
2023/06/01 01:28:56;;;;;;;6.20;6.00;;;14.00;99.90;;;;;;5040792;28;20992;-68
2023/06/01 01:31:26;;;;;;;7.73;7.07;;;13.90;99.90;;;;;;5040970;28;20539;-67
2023/06/01 01:33:56;;;;;;;5.60;5.40;;;13.90;99.90;;;;;;5030212;28;20919;-67
2023/06/01 01:36:25;;;;;;;6.70;6.50;;;13.80;99.90;;;;;;5045077;28;20519;-67
2023/06/01 01:38:54;;;;;;;7.53;7.23;;;13.80;99.90;;;;;;5037868;28;20496;-67
2023/06/01 01:41:21;;;;;;;8.50;7.90;;;13.80;99.90;;;;;;5040269;28;20557;-68
2023/06/01 01:43:49;;;;;;;7.30;6.90;;;13.70;99.90;;;;;;5042944;28;20456;-68
2023/06/01 01:46:25;;;;;;;6.23;6.03;;;13.70;99.90;;;;;;5039938;28;20492;-68
2023/06/01 01:49:01;;;;;;;5.90;5.70;;;13.60;99.90;;;;;;5039754;28;20459;-67
2023/06/01 01:51:36;;;;;;;8.60;8.03;;;13.50;99.90;;;;;;5036893;28;20460;-67
2023/06/01 01:54:06;;;;;;;6.20;5.80;;;13.50;99.90;;;;;;5037046;28;20521;-67
2023/06/01 01:56:36;;;;;;;7.80;7.07;;;13.50;99.90;;;;;;5037042;28;20543;-67
2023/06/01 01:59:04;;;;;;;5.60;5.40;;;13.40;99.90;;;;;;5040118;28;20936;-67
2023/06/01 02:01:33;;;;;;;12.73;7.63;;;13.40;99.90;;;;;;5029671;28;20457;-68
2023/06/01 02:04:02;;;;;;;7.13;6.83;;;13.30;99.90;;;;;;5034088;28;20547;-68
2023/06/01 02:06:29;;;;;;;5.20;5.00;;;13.20;99.90;;;;;;5038372;28;20519;-67
2023/06/01 02:08:56;;;;;;;5.73;5.53;;;13.10;99.90;;;;;;5043471;28;20839;-68
2023/06/01 02:11:24;;;;;;;8.70;7.90;;;13.10;99.90;;;;;;5036744;28;20475;-67
2023/06/01 02:13:51;;;;;;;5.90;5.50;;;13.10;99.90;;;;;;5035135;28;20460;-67
2023/06/01 02:16:18;;;;;;;6.20;5.90;;;13.00;99.90;;;;;;5048257;28;20467;-66
2023/06/01 02:18:46;;;;;;;5.30;5.10;;;12.90;99.90;;;;;;5036928;28;20867;-67
2023/06/01 02:21:14;;;;;;;5.50;5.30;;;12.80;99.90;;;;;;5040127;28;20465;-68
2023/06/01 02:23:41;;;;;;;6.83;6.33;;;12.80;99.90;;;;;;5041297;28;20559;-68
2023/06/01 02:26:08;;;;;;;4.60;4.50;;;12.70;99.90;;;;;;5035957;28;20620;-68
2023/06/01 02:28:37;;;;;;;4.53;4.43;;;12.70;99.90;;;;;;5039985;28;20467;-67
2023/06/01 02:31:04;;;;;;;5.63;5.43;;;12.70;99.90;;;;;;5037737;28;20995;-66
2023/06/01 02:33:31;;;;;;;5.13;4.93;;;12.60;99.90;;;;;;5039284;28;20575;-67
2023/06/01 02:35:59;;;;;;;6.90;6.37;;;12.50;99.90;;;;;;5045079;28;20472;-68
2023/06/01 02:38:26;;;;;;;5.17;4.97;;;12.50;99.90;;;;;;5033370;28;20492;-68
2023/06/01 02:40:53;;;;;;;5.90;5.53;;;12.50;99.90;;;;;;5045024;28;20562;-67
2023/06/01 02:43:20;;;;;;;6.07;5.63;;;12.40;99.90;;;;;;5039384;28;20463;-67
2023/06/01 02:45:47;;;;;;;6.83;5.70;;;12.40;99.90;;;;;;5043542;28;20524;-68
2023/06/01 02:48:14;;;;;;;3.70;3.60;;;12.30;99.90;;;;;;5035044;28;20834;-68
2023/06/01 02:50:40;;;;;;;7.40;6.70;;;12.30;99.90;;;;;;5037435;28;20471;-67
2023/06/01 02:53:09;;;;;;;4.50;4.20;;;12.20;99.90;;;;;;5036980;28;20460;-68
2023/06/01 02:55:36;;;;;;;7.03;5.67;;;12.20;99.90;;;;;;5039357;28;20463;-68
2023/06/01 02:58:08;;;;;;;4.07;3.97;;;12.10;99.90;;;;;;5034987;28;20571;-67
2023/06/01 03:00:37;;;;;;;8.30;5.27;;;12.10;99.90;;;;;;5046020;28;20463;-67
2023/06/01 03:03:04;;;;;;;6.93;5.47;;;12.10;99.90;;;;;;5042549;28;20456;-68
2023/06/01 03:05:32;;;;;;;6.90;6.20;;;12.00;99.90;;;;;;5046937;28;20558;-68
2023/06/01 03:07:59;;;;;;;17.57;8.80;;;12.00;99.90;;;;;;5038787;28;20527;-67
2023/06/01 03:10:28;;;;;;;8.07;5.23;;;12.00;99.90;;;;;;5043836;28;20471;-67
2023/06/01 03:12:55;;;;;;;5.30;4.90;;;11.90;99.90;;;;;;5046094;28;20513;-67
2023/06/01 03:15:22;;;;;;;11.33;7.07;;;11.80;99.90;;;;;;5051317;28;20579;-67
2023/06/01 03:17:50;;;;;;;5.40;4.40;;;11.80;99.90;;;;;;5037376;28;20950;-67
2023/06/01 03:20:18;;;;;;;5.57;4.97;;;11.70;99.90;;;;;;5037366;28;20599;-67
2023/06/01 03:22:46;;;;;;;4.97;4.57;;;11.70;99.90;;;;;;5049651;28;20468;-67
2023/06/01 03:25:14;;;;;;;4.30;4.10;;;11.70;99.90;;;;;;5042707;28;20464;-67
2023/06/01 03:27:42;;;;;;;6.50;5.87;;;11.60;99.90;;;;;;5040622;28;20491;-67
2023/06/01 03:30:11;;;;;;;3.87;3.70;;;11.60;99.90;;;;;;5042809;28;20485;-68
2023/06/01 03:32:38;;;;;;;3.93;3.83;;;11.60;99.90;;;;;;5040090;28;20476;-67
2023/06/01 03:35:07;;;;;;;6.57;6.17;;;11.60;99.90;;;;;;5042424;28;20471;-67
2023/06/01 03:37:35;;;;;;;5.33;4.80;;;11.50;99.90;;;;;;5042614;28;20475;-67
2023/06/01 03:40:10;;;;;;;3.80;3.60;;;11.50;99.90;;;;;;5039496;28;20459;-67
2023/06/01 03:42:36;;;;;;;3.30;3.03;;;11.40;99.90;;;;;;5043171;28;20982;-66
2023/06/01 03:45:06;;;;;;;6.43;4.83;;;11.40;99.90;;;;;;5040364;28;20880;-67
2023/06/01 03:47:33;;;;;;;5.77;5.07;;;11.40;99.90;;;;;;5038134;28;20859;-66
2023/06/01 03:50:01;;;;;;;13.07;8.03;;;11.40;99.90;;;;;;5045847;28;20496;-67
2023/06/01 03:52:28;;;;;;;5.27;4.97;;;11.30;99.90;;;;;;5036898;28;20571;-67
2023/06/01 03:54:55;;;;;;;18.00;8.63;;;11.30;99.90;;;;;;5037927;28;20758;-67
2023/06/01 03:57:23;;;;;;;6.30;5.60;;;11.30;99.90;;;;;;5042787;28;20464;-66
2023/06/01 03:59:51;;;;;;;7.30;6.00;;;11.30;99.90;;;;;;5042685;28;20547;-67
2023/06/01 04:02:21;;;;;;;5.70;4.53;;;11.30;99.90;;;;;;5037356;28;20471;-67
2023/06/01 04:04:48;;;;;;;6.93;6.43;;;11.30;99.90;;;;;;5043583;28;20456;-67
2023/06/01 04:07:18;;;;;;;8.23;6.33;;;11.20;99.90;;;;;;5041508;28;20487;-68
2023/06/01 04:09:46;;;;;;;26.43;7.50;;;11.30;99.90;;;;;;5046967;28;20509;-67
2023/06/01 04:12:14;;;;;;;7.07;6.57;;;11.30;99.90;;;;;;5035824;28;20560;-68
2023/06/01 04:14:41;;;;;;;7.27;6.20;;;11.30;99.90;;;;;;5042150;28;20492;-67
2023/06/01 04:17:09;;;;;;;9.10;8.40;;;11.40;99.90;;;;;;5040216;28;21033;-67
2023/06/01 04:19:38;;;;;;;23.10;12.57;;;11.30;99.90;;;;;;5043612;28;20502;-67
2023/06/01 04:22:05;;;;;;;25.63;11.97;;;11.40;99.90;;;;;;5042877;28;20513;-68
2023/06/01 04:24:32;;;;;;;8.30;7.53;;;11.50;99.90;;;;;;5045687;28;20448;-68
2023/06/01 04:26:59;;;;;;;28.40;15.43;;;11.50;99.90;;;;;;5038621;28;20483;-67
2023/06/01 04:29:26;;;;;;;45.00;17.87;;;11.50;99.90;;;;;;5044150;28;20790;-67
2023/06/01 04:31:54;;;;;;;16.97;8.57;;;11.60;99.90;;;;;;5032797;28;20476;-67
2023/06/01 04:34:23;;;;;;;2.90;2.80;;;11.60;99.90;;;;;;5045276;28;20480;-67
2023/06/01 04:36:52;;;;;;;8.00;6.13;;;11.80;99.90;;;;;;5041221;28;20460;-67
2023/06/01 04:39:19;;;;;;;34.40;15.80;;;12.00;99.90;;;;;;5041265;28;20475;-67
2023/06/01 04:41:46;;;;;;;11.87;6.67;;;12.10;99.90;;;;;;5037203;28;20491;-67
2023/06/01 04:44:13;;;;;;;20.67;10.20;;;12.10;99.90;;;;;;5043612;28;20467;-67
2023/06/01 04:46:40;;;;;;;4.10;4.00;;;12.20;99.90;;;;;;5041347;28;20574;-67
2023/06/01 04:49:07;;;;;;;13.47;12.37;;;12.10;99.90;;;;;;5034029;28;20518;-67
2023/06/01 04:51:36;;;;;;;37.80;19.27;;;12.20;99.90;;;;;;5045983;28;20475;-67
2023/06/01 04:54:05;;;;;;;29.17;19.37;;;12.10;99.90;;;;;;5036476;28;20486;-66
2023/06/01 04:56:32;;;;;;;9.23;8.57;;;12.10;99.90;;;;;;5047636;28;20514;-68
2023/06/01 04:59:00;;;;;;;7.20;6.57;;;12.10;99.90;;;;;;5043765;28;20468;-67
2023/06/01 05:01:29;;;;;;;16.93;11.47;;;12.20;99.90;;;;;;5043717;28;20460;-67
2023/06/01 05:03:56;;;;;;;4.50;4.40;;;12.50;99.90;;;;;;5039807;28;20518;-67
2023/06/01 05:06:26;;;;;;;12.63;10.00;;;12.50;99.90;;;;;;5035379;28;20464;-68
2023/06/01 05:08:53;;;;;;;11.77;10.90;;;12.60;99.90;;;;;;5037986;28;21008;-68
2023/06/01 05:11:22;;;;;;;13.50;12.30;;;12.60;99.90;;;;;;5046455;28;20462;-68
2023/06/01 05:13:51;;;;;;;19.20;17.37;;;12.70;99.90;;;;;;5036910;28;20567;-68
2023/06/01 05:16:18;;;;;;;15.27;13.87;;;12.60;99.90;;;;;;5041084;28;20943;-68
2023/06/01 05:18:45;;;;;;;31.57;14.30;;;12.30;99.90;;;;;;5041248;28;20503;-68
2023/06/01 05:21:12;;;;;;;7.13;6.77;;;12.10;99.90;;;;;;5037667;28;20464;-68
2023/06/01 05:23:39;;;;;;;18.17;14.97;;;12.20;99.90;;;;;;5033115;28;20581;-67
2023/06/01 05:26:07;;;;;;;34.07;10.33;;;12.30;99.90;;;;;;5041110;28;20464;-68
2023/06/01 05:28:36;;;;;;;15.73;14.07;;;12.30;99.90;;;;;;5038275;28;20991;-68
2023/06/01 05:31:05;;;;;;;13.40;12.30;;;12.10;99.90;;;;;;5035408;28;20586;-67
2023/06/01 05:33:32;;;;;;;14.13;12.87;;;12.10;99.90;;;;;;5044161;28;20480;-68
2023/06/01 05:35:59;;;;;;;19.70;12.97;;;12.10;99.90;;;;;;5037543;28;20527;-67
2023/06/01 05:38:27;;;;;;;19.53;12.47;;;11.90;99.90;;;;;;5034943;28;21037;-68
2023/06/01 05:40:54;;;;;;;29.33;18.60;;;11.90;99.90;;;;;;5045637;28;20463;-68
2023/06/01 05:43:21;;;;;;;17.40;13.87;;;11.80;99.90;;;;;;5036594;28;20464;-68
2023/06/01 05:45:49;;;;;;;18.00;14.87;;;11.80;99.90;;;;;;5043557;28;20452;-67
2023/06/01 05:48:16;;;;;;;23.37;15.77;;;11.80;99.90;;;;;;5033749;28;21065;-67
2023/06/01 05:50:43;;;;;;;14.37;12.80;;;11.80;99.90;;;;;;5043091;28;20467;-67
2023/06/01 05:53:10;;;;;;;7.43;6.87;;;11.90;99.90;;;;;;5036276;28;20542;-67
2023/06/01 05:55:38;;;;;;;34.53;16.10;;;11.80;99.90;;;;;;5040404;28;20460;-68
2023/06/01 05:58:04;;;;;;;7.70;7.20;;;12.00;99.90;;;;;;5029459;28;20460;-68
2023/06/01 06:00:32;;;;;;;11.33;8.93;;;12.10;99.90;;;;;;5035186;28;20464;-67
2023/06/01 06:03:00;;;;;;;19.90;12.10;;;12.30;99.90;;;;;;5040194;28;20460;-68
2023/06/01 06:05:27;;;;;;;11.20;10.27;;;12.40;99.90;;;;;;5035961;28;20463;-67
2023/06/01 06:07:54;;;;;;;11.80;11.00;;;12.40;99.90;;;;;;5032265;28;20508;-68
2023/06/01 06:10:20;;;;;;;19.13;13.93;;;12.50;99.90;;;;;;5041926;28;20458;-68
2023/06/01 06:12:47;;;;;;;12.93;12.07;;;12.60;99.90;;;;;;5037523;28;20853;-67
2023/06/01 06:15:14;;;;;;;12.27;11.37;;;12.40;99.90;;;;;;5041392;28;20515;-67
2023/06/01 06:17:43;;;;;;;14.80;12.07;;;12.50;99.90;;;;;;5036200;28;20472;-68
2023/06/01 06:20:15;;;;;;;13.63;12.37;;;12.50;99.90;;;;;;5035102;28;20485;-67
2023/06/01 06:22:43;;;;;;;22.17;16.20;;;12.40;99.90;;;;;;5034282;28;21046;-68
2023/06/01 06:25:11;;;;;;;12.10;11.37;;;12.50;99.90;;;;;;5036847;28;20456;-67
2023/06/01 06:27:38;;;;;;;13.57;12.50;;;12.50;99.90;;;;;;5035961;28;20483;-68
2023/06/01 06:30:07;;;;;;;20.20;17.13;;;12.70;99.90;;;;;;5034582;28;20480;-67
2023/06/01 06:32:34;;;;;;;16.40;15.10;;;13.00;99.90;;;;;;5036975;28;21033;-67
2023/06/01 06:35:01;;;;;;;15.30;13.90;;;12.90;99.90;;;;;;5042963;28;20467;-67
2023/06/01 06:37:30;;;;;;;15.07;13.50;;;13.10;99.90;;;;;;5040247;28;20472;-68
2023/06/01 06:39:58;;;;;;;27.53;17.60;;;13.10;99.90;;;;;;5042019;28;20462;-67
2023/06/01 06:42:27;;;;;;;21.37;17.27;;;13.20;99.90;;;;;;5041136;28;20582;-68
2023/06/01 06:44:56;;;;;;;29.33;20.90;;;13.30;99.90;;;;;;5039427;28;20532;-68
2023/06/01 06:47:24;;;;;;;26.77;21.30;;;13.50;99.90;;;;;;5034963;28;20503;-67
2023/06/01 06:49:51;;;;;;;22.57;20.33;;;13.70;99.90;;;;;;5041801;28;21017;-68
2023/06/01 06:52:19;;;;;;;18.97;17.47;;;13.50;99.90;;;;;;5037041;28;20461;-68
2023/06/01 06:54:47;;;;;;;28.33;19.90;;;13.20;99.90;;;;;;5038551;28;20491;-68
2023/06/01 06:57:14;;;;;;;15.43;13.90;;;13.10;99.90;;;;;;5043085;28;20782;-68
2023/06/01 06:59:42;;;;;;;16.37;15.27;;;13.20;99.90;;;;;;5045527;28;20581;-68
2023/06/01 07:02:09;;;;;;;15.70;14.60;;;13.30;99.90;;;;;;5028788;28;20474;-68
2023/06/01 07:04:36;;;;;;;11.50;10.93;;;13.50;99.90;;;;;;5042505;28;20467;-68
2023/06/01 07:07:04;;;;;;;15.87;14.87;;;13.60;99.90;;;;;;5041387;28;20887;-68
2023/06/01 07:09:30;;;;;;;20.70;18.90;;;13.90;99.90;;;;;;5044191;28;20825;-68
2023/06/01 07:11:59;;;;;;;15.50;14.53;;;13.80;99.90;;;;;;5034170;28;20461;-68
2023/06/01 07:14:26;;;;;;;11.60;11.10;;;13.60;99.90;;;;;;5034549;28;20476;-68
2023/06/01 07:16:53;;;;;;;13.20;12.57;;;13.70;99.90;;;;;;5036524;28;21181;-68
2023/06/01 07:19:20;;;;;;;17.37;15.87;;;13.60;99.90;;;;;;5031369;28;21059;-68
2023/06/01 07:21:47;;;;;;;11.87;11.37;;;13.70;99.90;;;;;;5034930;28;20494;-68
2023/06/01 07:24:14;;;;;;;16.03;14.60;;;13.70;99.90;;;;;;5038722;28;20464;-68
2023/06/01 07:26:41;;;;;;;17.90;16.07;;;14.10;99.90;;;;;;5033373;28;20465;-67
2023/06/01 07:29:09;;;;;;;14.57;13.60;;;14.10;99.90;;;;;;5036562;28;20581;-67
2023/06/01 07:31:36;;;;;;;16.30;15.00;;;14.40;99.90;;;;;;5032794;28;21091;-67
2023/06/01 07:34:03;;;;;;;19.40;17.87;;;14.60;99.90;;;;;;5030753;28;21029;-67
2023/06/01 07:36:36;;;;;;;15.93;15.13;;;14.60;99.90;;;;;;5031891;28;21013;-67
2023/06/01 07:39:08;;;;;;;15.33;14.43;;;14.60;99.90;;;;;;5031613;28;20955;-68
2023/06/01 07:41:35;;;;;;;16.77;15.50;;;14.50;99.90;;;;;;5034464;28;20457;-67
2023/06/01 07:44:03;;;;;;;17.30;16.07;;;14.60;99.90;;;;;;5038479;28;20517;-67
2023/06/01 07:46:32;;;;;;;15.37;14.57;;;14.70;99.90;;;;;;5031021;28;20817;-68
2023/06/01 07:48:59;;;;;;;14.80;14.10;;;14.90;99.90;;;;;;5035472;28;20896;-67
2023/06/01 07:51:31;;;;;;;13.57;13.00;;;15.10;99.90;;;;;;5035316;28;20480;-67
2023/06/01 07:53:59;;;;;;;16.80;15.80;;;15.40;99.90;;;;;;5035599;28;20680;-68
2023/06/01 07:56:28;;;;;;;16.13;15.20;;;15.30;99.90;;;;;;5032401;28;20468;-67
2023/06/01 07:58:55;;;;;;;13.63;13.03;;;15.40;99.90;;;;;;5044953;28;20620;-68
2023/06/01 08:01:22;;;;;;;13.20;12.70;;;15.30;99.90;;;;;;5040789;28;20468;-67
2023/06/01 08:03:51;;;;;;;14.80;13.80;;;15.60;99.90;;;;;;5036017;28;20461;-68
2023/06/01 08:06:23;;;;;;;13.37;12.77;;;15.70;99.90;;;;;;5032900;28;20459;-67
2023/06/01 08:08:52;;;;;;;15.23;14.50;;;16.20;99.90;;;;;;5035881;28;20495;-68
2023/06/01 08:11:18;;;;;;;13.70;13.13;;;16.90;99.90;;;;;;5041620;28;20456;-67
2023/06/01 08:13:46;;;;;;;18.30;17.13;;;17.70;99.90;;;;;;5032879;28;20470;-68
2023/06/01 08:16:14;;;;;;;17.33;16.33;;;18.30;99.90;;;;;;5039743;28;20580;-68
2023/06/01 08:18:42;;;;;;;19.10;17.50;;;18.60;99.90;;;;;;5036714;28;20471;-68
2023/06/01 08:21:10;;;;;;;17.07;16.20;;;18.30;99.90;;;;;;5038389;28;20950;-68
2023/06/01 08:23:37;;;;;;;21.07;19.23;;;18.70;99.90;;;;;;5039979;28;20453;-68
2023/06/01 08:26:04;;;;;;;16.33;15.43;;;18.70;99.90;;;;;;5032718;28;20476;-67
2023/06/01 08:28:32;;;;;;;13.93;13.33;;;18.30;99.90;;;;;;5041315;28;20488;-69
2023/06/01 08:30:59;;;;;;;15.40;14.60;;;18.50;99.90;;;;;;5029814;28;20665;-69
2023/06/01 08:33:27;;;;;;;16.67;15.57;;;18.80;99.90;;;;;;5041122;28;20472;-68
2023/06/01 08:35:54;;;;;;;16.90;15.77;;;18.70;99.90;;;;;;5036027;28;20461;-67
2023/06/01 08:38:22;;;;;;;14.97;14.27;;;18.70;99.90;;;;;;5035178;28;20537;-68
2023/06/01 08:40:49;;;;;;;17.00;16.10;;;18.80;99.90;;;;;;5036399;28;20461;-69
2023/06/01 08:43:21;;;;;;;16.60;15.67;;;19.40;99.90;;;;;;5032230;28;20925;-68
2023/06/01 08:45:48;;;;;;;17.57;16.13;;;19.70;99.90;;;;;;5036151;28;20515;-68
2023/06/01 08:48:19;;;;;;;16.07;15.37;;;19.80;99.90;;;;;;5033616;28;20904;-68
2023/06/01 08:50:49;;;;;;;15.10;14.50;;;20.40;99.90;;;;;;5038579;28;20990;-68
2023/06/01 08:53:20;;;;;;;19.47;18.20;;;21.20;99.90;;;;;;5035704;28;20748;-68
2023/06/01 08:55:52;;;;;;;18.13;17.13;;;21.30;99.90;;;;;;5038819;28;20449;-69
2023/06/01 08:58:19;;;;;;;18.33;17.30;;;20.40;99.90;;;;;;5035270;28;20476;-67
2023/06/01 09:00:49;;;;;;;19.90;17.87;;;20.10;99.90;;;;;;5032661;28;20472;-68
2023/06/01 09:03:16;;;;;;;15.20;14.60;;;19.80;99.90;;;;;;5034717;28;20460;-69
2023/06/01 09:05:43;;;;;;;15.67;14.87;;;20.30;99.90;;;;;;5035239;28;20896;-68
2023/06/01 09:08:10;;;;;;;18.00;16.43;;;20.60;99.90;;;;;;5030327;28;20492;-68
2023/06/01 09:10:37;;;;;;;18.13;17.03;;;20.30;99.90;;;;;;5035592;28;20476;-68
2023/06/01 09:13:05;;;;;;;19.30;17.93;;;20.50;99.90;;;;;;5033384;28;21509;-68
2023/06/01 09:15:32;;;;;;;16.67;15.63;;;20.60;99.90;;;;;;5034220;28;20858;-68
2023/06/01 09:18:07;;;;;;;16.30;15.50;;;20.40;99.90;;;;;;5029498;28;20832;-69
2023/06/01 09:20:34;;;;;;;16.30;15.60;;;21.20;99.90;;;;;;5036619;28;20474;-68
2023/06/01 09:23:02;;;;;;;18.20;17.27;;;21.50;99.90;;;;;;5033076;28;20487;-68
2023/06/01 09:25:30;;;;;;;18.63;17.20;;;21.20;99.90;;;;;;5032593;28;20464;-69
2023/06/01 09:27:59;;;;;;;19.70;17.83;;;21.60;99.90;;;;;;5038199;28;20530;-69
2023/06/01 09:30:38;;;;;;;16.63;15.83;;;22.10;99.90;;;;;;5035435;28;21041;-69
2023/06/01 09:33:12;;;;;;;18.83;17.73;;;22.50;99.90;;;;;;5031366;28;20488;-68
2023/06/01 09:35:41;;;;;;;18.40;17.30;;;22.80;99.90;;;;;;5033104;28;20509;-68
2023/06/01 09:38:10;;;;;;;18.43;17.43;;;22.90;99.90;;;;;;5037504;28;20955;-69
2023/06/01 09:40:38;;;;;;;16.57;15.80;;;23.30;99.90;;;;;;5033713;28;20559;-69
2023/06/01 09:43:19;;;;;;;15.97;15.27;;;22.90;99.90;;;;;;5033139;28;20852;-69
2023/06/01 09:46:05;;;;;;;20.37;18.63;;;23.10;99.90;;;;;;5032304;28;20465;-68
2023/06/01 09:48:32;;;;;;;18.13;16.70;;;22.50;99.90;;;;;;5033658;28;20498;-68
2023/06/01 09:51:00;;;;;;;15.40;14.80;;;22.70;99.90;;;;;;5041011;28;20488;-69
2023/06/01 09:53:27;;;;;;;21.57;19.27;;;23.10;99.90;;;;;;5031088;28;20556;-68
2023/06/01 09:55:59;;;;;;;21.50;20.00;;;23.60;99.90;;;;;;5029505;28;20460;-69
2023/06/01 09:58:25;;;;;;;15.00;14.40;;;23.20;99.90;;;;;;5033018;28;20513;-68
2023/06/01 10:00:54;;;;;;;18.57;17.47;;;22.80;99.90;;;;;;5038267;28;20459;-68
2023/06/01 10:03:22;;;;;;;15.27;14.50;;;22.80;99.90;;;;;;5032256;28;20467;-69
2023/06/01 10:05:49;;;;;;;17.27;16.13;;;22.90;99.90;;;;;;5034654;28;20464;-68
2023/06/01 10:08:18;;;;;;;16.07;15.30;;;22.60;99.90;;;;;;5032747;28;20951;-68
2023/06/01 10:10:48;;;;;;;26.63;15.97;;;23.00;99.90;;;;;;5033193;28;20456;-68
2023/06/01 10:13:16;;;;;;;16.93;15.93;;;23.50;99.90;;;;;;5027873;28;20460;-68
2023/06/01 10:15:43;;;;;;;16.00;15.20;;;24.30;99.00;;;;;;5033191;28;20468;-68
2023/06/01 10:18:12;;;;;;;21.03;19.37;;;24.60;98.50;;;;;;5036875;28;20463;-68
2023/06/01 10:20:40;;;;;;;18.50;17.13;;;24.40;98.40;;;;;;5033365;28;20484;-68
2023/06/01 10:23:08;;;;;;;13.73;13.13;;;24.10;98.60;;;;;;5034588;28;20468;-68
2023/06/01 10:25:42;;;;;;;15.90;15.00;;;23.90;97.60;;;;;;5031240;28;20448;-68
2023/06/01 10:28:12;;;;;;;19.37;15.73;;;24.30;97.00;;;;;;5032781;28;20467;-67
2023/06/01 10:30:39;;;;;;;16.53;15.67;;;24.30;97.30;;;;;;5037011;28;21049;-67
2023/06/01 10:33:07;;;;;;;14.23;13.63;;;24.20;96.90;;;;;;5032960;28;20888;-67
2023/06/01 10:35:54;;;;;;;16.53;15.50;;;24.80;98.00;;;;;;5030888;28;20471;-67
2023/06/01 10:38:28;;;;;;;17.13;15.53;;;25.10;96.00;;;;;;5035587;28;20459;-67
2023/06/01 10:41:32;;;;;;;16.00;15.10;;;24.50;96.10;;;;;;5037879;28;20879;-67
2023/06/01 10:43:59;;;;;;;14.80;14.10;;;23.80;96.40;;;;;;5033924;28;20455;-67
2023/06/01 10:46:40;;;;;;;12.63;12.13;;;23.20;96.30;;;;;;5033400;28;20468;-68
2023/06/01 10:49:07;;;;;;;13.67;13.07;;;23.60;95.10;;;;;;5034630;28;20571;-68
2023/06/01 10:51:35;;;;;;;16.53;15.33;;;23.80;95.60;;;;;;5029341;28;20471;-68
2023/06/01 10:54:38;;;;;;;17.10;15.83;;;24.60;97.40;;;;;;5033226;28;20471;-68
2023/06/01 10:57:24;;;;;;;18.03;16.13;;;24.70;95.10;;;;;;5033987;28;20449;-68
2023/06/01 11:00:15;;;;;;;18.20;16.53;;;23.70;95.60;;;;;;5033867;28;20460;-68
2023/06/01 11:02:48;;;;;;;18.20;16.50;;;22.90;97.40;;;;;;5026282;28;20897;-69
2023/06/01 11:05:46;;;;;;;17.90;16.40;;;22.80;98.60;;;;;;5036968;28;20820;-69
2023/06/01 11:08:51;;;;;;;17.17;15.70;;;23.60;99.40;;;;;;5036871;28;20706;-69
2023/06/01 11:11:21;;;;;;;15.90;14.90;;;23.70;96.90;;;;;;5032735;28;20828;-69
2023/06/01 11:14:08;;;;;;;16.47;14.87;;;23.40;96.60;;;;;;5035675;28;20464;-68
2023/06/01 11:16:35;;;;;;;18.07;16.87;;;23.60;97.50;;;;;;5031864;28;20547;-69
2023/06/01 11:19:03;;;;;;;16.67;15.87;;;24.00;96.20;;;;;;5033879;28;20488;-68
2023/06/01 11:21:33;;;;;;;16.47;15.47;;;24.20;95.90;;;;;;5038290;28;20519;-68
2023/06/01 11:24:01;;;;;;;16.00;15.10;;;24.60;97.00;;;;;;5045131;28;20471;-69
2023/06/01 11:26:32;;;;;;;16.83;15.60;;;24.80;94.90;;;;;;5036154;28;20513;-68
2023/06/01 11:29:19;;;;;;;17.57;16.50;;;24.60;94.40;;;;;;5037884;28;20480;-69
2023/06/01 11:31:47;;;;;;;17.13;16.20;;;24.50;95.50;;;;;;5038998;28;20510;-69
2023/06/01 11:34:16;;;;;;;16.43;15.63;;;24.30;95.10;;;;;;5045526;28;20456;-68
2023/06/01 11:36:47;;;;;;;17.17;16.27;;;25.10;95.80;;;;;;5037100;28;20467;-68
2023/06/01 11:39:20;;;;;;;16.10;15.13;;;25.30;93.20;;;;;;5039945;28;20817;-69
2023/06/01 11:41:48;;;;;;;16.03;15.00;;;25.80;92.90;;;;;;5033420;28;20502;-69
2023/06/01 11:44:15;;;;;;;21.00;19.43;;;26.30;92.60;;;;;;5040675;28;20463;-69
2023/06/01 11:46:56;;;;;;;17.40;16.00;;;26.00;91.90;;;;;;5033167;28;20472;-69
2023/06/01 11:49:24;;;;;;;16.20;15.20;;;25.40;90.90;;;;;;5033196;28;20586;-69
2023/06/01 11:51:56;;;;;;;14.40;13.80;;;25.00;90.70;;;;;;5039386;28;20829;-69
2023/06/01 11:54:26;;;;;;;18.13;16.77;;;25.70;90.20;;;;;;5041659;28;20459;-69
2023/06/01 11:56:53;;;;;;;17.73;16.27;;;26.20;90.20;;;;;;5035022;28;20756;-69
2023/06/01 11:59:20;;;;;;;14.80;14.10;;;25.70;91.80;;;;;;5034465;28;20467;-69
2023/06/01 12:01:48;;;;;;;17.00;16.07;;;26.20;91.20;;;;;;5038616;28;20460;-69
2023/06/01 12:04:18;;;;;;;19.20;17.43;;;27.10;90.50;;;;;;5035600;28;20567;-69
2023/06/01 12:06:46;;;;;;;13.73;13.20;;;26.30;91.10;;;;;;5041763;28;20547;-69
2023/06/01 12:09:15;;;;;;;15.60;14.83;;;26.60;91.70;;;;;;5037867;28;20506;-69
2023/06/01 12:11:44;;;;;;;18.43;17.23;;;26.50;91.90;;;;;;5036841;28;20491;-69
2023/06/01 12:14:11;;;;;;;14.90;14.20;;;26.10;91.00;;;;;;5039163;28;20457;-69
2023/06/01 12:16:58;;;;;;;17.03;15.83;;;26.00;92.50;;;;;;5033402;28;20471;-69
2023/06/01 12:19:26;;;;;;;15.70;14.90;;;25.60;91.70;;;;;;5032617;28;20542;-69
2023/06/01 12:21:55;;;;;;;17.23;16.20;;;25.60;89.70;;;;;;5033784;28;20553;-69
2023/06/01 12:24:29;;;;;;;18.23;16.67;;;25.70;91.60;;;;;;5041097;28;21127;-69
2023/06/01 12:26:58;;;;;;;14.17;13.57;;;25.90;90.10;;;;;;5035112;28;20469;-69
2023/06/01 12:29:41;;;;;;;16.27;15.47;;;26.20;90.10;;;;;;5036140;28;20572;-69
2023/06/01 12:32:11;;;;;;;17.20;15.77;;;26.90;86.20;;;;;;5038212;28;20534;-69
2023/06/01 12:34:47;;;;;;;16.10;15.10;;;26.60;88.60;;;;;;5031519;28;20457;-69
2023/06/01 12:37:15;;;;;;;14.30;13.60;;;26.50;88.30;;;;;;5030620;28;20985;-69
2023/06/01 12:39:43;;;;;;;18.83;17.73;;;26.50;87.30;;;;;;5031328;28;20492;-69
2023/06/01 12:42:11;;;;;;;15.40;14.50;;;27.10;83.80;;;;;;5032136;28;20465;-69
2023/06/01 12:44:41;;;;;;;14.40;13.80;;;26.80;82.70;;;;;;5033165;28;20456;-69